Time;durP1;ratioP1;P1;durP2;ratioP2;P2;SDS_P1;SDS_P2;PMS_P1;PMS_P2;Temp;Humidity;BMP_temperature;BMP_pressure;BME280_temperature;BME280_humidity;BME280_pressure;Samples;Min_cycle;Max_cycle;Signal;HPM_P1;HPM_P2
2023/01/25 00:00:05;;;;;;;;;;;3.70;99.90;;;;;;5023292;28;19959;-68
2023/01/25 00:02:31;;;;;;;;;;;3.70;99.90;;;;;;5012933;28;19920;-69
2023/01/25 00:04:56;;;;;;;;;;;3.80;99.90;;;;;;5011453;28;19909;-68
2023/01/25 00:07:22;;;;;;;;;;;3.70;99.90;;;;;;5012991;28;19917;-68
2023/01/25 00:09:48;;;;;;;;;;;3.70;99.90;;;;;;5011462;28;20000;-69
2023/01/25 00:12:13;;;;;;;;;;;3.70;99.90;;;;;;5012673;28;20320;-68
2023/01/25 00:14:39;;;;;;;;;;;3.80;99.90;;;;;;5016932;28;20289;-69
2023/01/25 00:17:04;;;;;;;;;;;3.80;99.90;;;;;;5009326;28;20300;-68
2023/01/25 00:19:30;;;;;;;;;;;3.80;99.90;;;;;;5012226;28;19917;-69
2023/01/25 00:21:55;;;;;;;;;;;3.80;99.90;;;;;;5024243;28;19917;-68
2023/01/25 00:24:22;;;;;;;;;;;3.80;99.90;;;;;;5010783;28;19913;-68
2023/01/25 00:26:47;;;;;;;;;;;3.80;99.90;;;;;;5009546;28;19910;-70
2023/01/25 00:29:13;;;;;;;;;;;3.80;99.90;;;;;;5012675;28;20270;-69
2023/01/25 00:31:47;;;;;;;;;;;3.80;99.90;;;;;;5012238;28;19916;-68
2023/01/25 00:34:19;;;;;;;;;;;3.70;99.90;;;;;;5006394;28;20304;-69
2023/01/25 00:36:44;;;;;;;;;;;3.70;99.90;;;;;;5007940;28;19932;-64
2023/01/25 00:39:11;;;;;;;;;;;3.70;99.90;;;;;;5004479;28;20365;-68
2023/01/25 00:41:37;;;;;;;;;;;3.70;99.90;;;;;;5011377;28;19916;-68
2023/01/25 00:44:03;;;;;;;;;;;3.70;99.90;;;;;;5005101;28;20363;-68
2023/01/25 00:46:29;;;;;;;;;;;3.70;99.90;;;;;;5012183;28;19913;-69
2023/01/25 00:48:55;;;;;;;;;;;3.70;99.90;;;;;;5010578;28;19913;-68
2023/01/25 00:51:21;;;;;;;;;;;3.70;99.90;;;;;;5012979;28;19913;-69
2023/01/25 00:53:47;;;;;;;;;;;3.80;99.90;;;;;;5009293;28;19916;-68
2023/01/25 00:56:13;;;;;;;;;;;3.80;99.90;;;;;;5006025;28;19910;-64
2023/01/25 00:58:39;;;;;;;;;;;3.80;99.90;;;;;;5010693;28;19975;-69
2023/01/25 01:01:05;;;;;;;;;;;3.80;99.90;;;;;;5010481;28;19913;-69
2023/01/25 01:03:31;;;;;;;;;;;3.80;99.90;;;;;;5013314;28;19913;-67
2023/01/25 01:06:01;;;;;;;;;;;3.80;99.90;;;;;;5008495;28;19916;-68
2023/01/25 01:08:27;;;;;;;;;;;3.70;99.90;;;;;;5003234;28;20262;-69
2023/01/25 01:10:57;;;;;;;;;;;3.70;99.90;;;;;;5007796;28;19922;-68
2023/01/25 01:13:23;;;;;;;;;;;3.70;99.90;;;;;;5006709;28;20364;-69
2023/01/25 01:15:48;;;;;;;;;;;3.70;99.90;;;;;;5007436;28;19917;-69
2023/01/25 01:18:14;;;;;;;;;;;3.70;99.90;;;;;;5009107;28;20626;-69
2023/01/25 01:20:39;;;;;;;;;;;3.70;99.90;;;;;;5008588;28;19913;-69
2023/01/25 01:23:05;;;;;;;;;;;3.70;99.90;;;;;;5007610;28;20412;-68
2023/01/25 01:25:31;;;;;;;;;;;3.70;99.90;;;;;;5009564;28;19960;-68
2023/01/25 01:27:57;;;;;;;;;;;3.80;99.90;;;;;;5004589;28;19909;-70
2023/01/25 01:30:22;;;;;;;;;;;3.70;99.90;;;;;;5009163;28;19917;-69
2023/01/25 01:32:49;;;;;;;;;;;3.80;99.90;;;;;;5007634;28;20480;-69
2023/01/25 01:35:15;;;;;;;;;;;3.70;99.90;;;;;;5008950;28;20388;-69
2023/01/25 01:37:41;;;;;;;;;;;3.70;99.90;;;;;;5006868;28;19956;-69
2023/01/25 01:40:11;;;;;;;;;;;3.70;99.90;;;;;;5010143;28;20008;-68
2023/01/25 01:42:54;;;;;;;;;;;3.70;99.90;;;;;;5008018;28;19913;-69
2023/01/25 01:45:38;;;;;;;;;;;3.70;99.90;;;;;;5019047;28;19909;-69
2023/01/25 01:48:04;;;;;;;;;;;3.60;99.90;;;;;;5006435;28;19909;-69
2023/01/25 01:50:30;;;;;;;;;;;3.60;99.90;;;;;;5009146;28;19971;-68
2023/01/25 01:52:56;;;;;;;;;;;3.70;99.90;;;;;;5006828;28;20377;-68
2023/01/25 01:55:23;;;;;;;;;;;3.70;99.90;;;;;;5007120;28;19937;-70
2023/01/25 01:57:52;;;;;;;;;;;3.70;99.90;;;;;;5002681;28;20368;-68
2023/01/25 02:00:21;;;;;;;;;;;3.60;99.90;;;;;;5009082;28;20273;-69
2023/01/25 02:02:48;;;;;;;;;;;3.60;99.90;;;;;;5009265;28;20012;-69
2023/01/25 02:05:21;;;;;;;;;;;3.60;99.90;;;;;;5008496;28;19933;-69
2023/01/25 02:07:48;;;;;;;;;;;3.60;99.90;;;;;;5021412;28;19909;-68
2023/01/25 02:10:14;;;;;;;;;;;3.60;99.90;;;;;;5007647;28;20013;-69
2023/01/25 02:12:40;;;;;;;;;;;3.60;99.90;;;;;;5007039;28;19916;-69
2023/01/25 02:15:06;;;;;;;;;;;3.60;99.90;;;;;;5005426;28;20000;-68
2023/01/25 02:17:33;;;;;;;;;;;3.60;99.90;;;;;;5007615;28;19917;-68
2023/01/25 02:20:05;;;;;;;;;;;3.70;99.90;;;;;;5006421;28;20015;-68
2023/01/25 02:22:36;;;;;;;;;;;3.60;99.90;;;;;;5007960;28;19913;-69
2023/01/25 02:25:05;;;;;;;;;;;3.60;99.90;;;;;;5005434;28;20024;-68
2023/01/25 02:27:31;;;;;;;;;;;3.70;99.90;;;;;;5004956;28;20295;-69
2023/01/25 02:29:57;;;;;;;;;;;3.70;99.90;;;;;;5006258;28;19917;-68
2023/01/25 02:32:23;;;;;;;;;;;3.60;99.90;;;;;;5007015;28;20335;-68
2023/01/25 02:34:48;;;;;;;;;;;3.60;99.90;;;;;;5006507;28;19909;-68
2023/01/25 02:37:14;;;;;;;;;;;3.60;99.90;;;;;;5007873;28;19916;-69
2023/01/25 02:39:40;;;;;;;;;;;3.60;99.90;;;;;;5006931;28;19962;-69
2023/01/25 02:42:05;;;;;;;;;;;3.70;99.90;;;;;;5006925;28;20007;-69
2023/01/25 02:44:31;;;;;;;;;;;3.60;99.90;;;;;;5010608;28;19921;-68
2023/01/25 02:46:57;;;;;;;;;;;3.60;99.90;;;;;;5008499;28;20284;-70
2023/01/25 02:49:23;;;;;;;;;;;3.60;99.90;;;;;;5009919;28;20416;-68
2023/01/25 02:51:51;;;;;;;;;;;3.60;99.90;;;;;;5008688;28;19909;-68
2023/01/25 02:54:17;;;;;;;;;;;3.60;99.90;;;;;;5008559;28;20357;-68
2023/01/25 02:56:44;;;;;;;;;;;3.60;99.90;;;;;;5009356;28;19917;-68
2023/01/25 02:59:12;;;;;;;;;;;3.60;99.90;;;;;;5009034;28;19919;-68
2023/01/25 03:01:39;;;;;;;;;;;3.60;99.90;;;;;;5010365;28;20009;-69
2023/01/25 03:04:05;;;;;;;;;;;3.60;99.90;;;;;;5013679;28;20004;-68
2023/01/25 03:06:31;;;;;;;;;;;3.50;99.90;;;;;;5007143;28;19909;-68
2023/01/25 03:08:57;;;;;;;;;;;3.60;99.90;;;;;;5007844;28;19966;-68
2023/01/25 03:11:23;;;;;;;;;;;3.60;99.90;;;;;;5009319;28;19909;-68
2023/01/25 03:13:48;;;;;;;;;;;3.50;99.90;;;;;;5007756;28;19909;-68
2023/01/25 03:16:14;;;;;;;;;;;3.60;99.90;;;;;;5009338;28;19910;-68
2023/01/25 03:18:40;;;;;;;;;;;3.60;99.90;;;;;;5009165;28;19924;-68
2023/01/25 03:21:11;;;;;;;;;;;3.60;99.90;;;;;;5006761;28;19910;-68
2023/01/25 03:23:37;;;;;;;;;;;3.50;99.90;;;;;;5009765;28;20008;-68
2023/01/25 03:26:05;;;;;;;;;;;3.50;99.90;;;;;;4998978;28;19909;-68
2023/01/25 03:28:31;;;;;;;;;;;3.50;99.90;;;;;;5009093;28;19913;-68
2023/01/25 03:30:56;;;;;;;;;;;3.50;99.90;;;;;;5008056;28;19932;-68
2023/01/25 03:33:22;;;;;;;;;;;3.50;99.90;;;;;;5009423;28;19915;-68
2023/01/25 03:35:51;;;;;;;;;;;3.50;99.90;;;;;;5007460;28;19916;-69
2023/01/25 03:38:19;;;;;;;;;;;3.50;99.90;;;;;;5009258;28;19916;-69
2023/01/25 03:40:45;;;;;;;;;;;3.50;99.90;;;;;;5005917;28;20012;-68
2023/01/25 03:43:10;;;;;;;;;;;3.40;99.90;;;;;;5009822;28;19933;-68
2023/01/25 03:45:36;;;;;;;;;;;3.40;99.90;;;;;;5012879;28;19914;-68
2023/01/25 03:48:02;;;;;;;;;;;3.40;99.90;;;;;;5011359;28;19909;-67
2023/01/25 03:50:27;;;;;;;;;;;3.40;99.90;;;;;;5024362;28;19964;-68
2023/01/25 03:53:00;;;;;;;;;;;3.40;99.90;;;;;;5006719;28;19910;-69
2023/01/25 03:55:25;;;;;;;;;;;3.40;99.90;;;;;;5001000;28;20274;-69
2023/01/25 03:57:51;;;;;;;;;;;3.40;99.90;;;;;;5010522;28;20353;-68
2023/01/25 04:00:18;;;;;;;;;;;3.30;99.90;;;;;;5012428;28;19913;-68
2023/01/25 04:02:45;;;;;;;;;;;3.40;99.90;;;;;;5013307;28;20461;-68
2023/01/25 04:05:10;;;;;;;;;;;3.40;99.90;;;;;;5012428;28;19913;-69
2023/01/25 04:07:36;;;;;;;;;;;3.30;99.90;;;;;;5012298;28;19932;-68
2023/01/25 04:10:02;;;;;;;;;;;3.30;99.90;;;;;;5009542;28;19917;-68
2023/01/25 04:12:28;;;;;;;;;;;3.30;99.90;;;;;;5011035;28;19909;-68
2023/01/25 04:14:53;;;;;;;;;;;3.30;99.90;;;;;;5009277;28;19925;-69
2023/01/25 04:17:19;;;;;;;;;;;3.30;99.90;;;;;;5013011;28;19909;-68
2023/01/25 04:19:44;;;;;;;;;;;3.40;99.90;;;;;;5011517;28;20310;-68
2023/01/25 04:22:11;;;;;;;;;;;3.40;99.90;;;;;;5012746;28;20012;-70
2023/01/25 04:24:37;;;;;;;;;;;3.30;99.90;;;;;;5012817;28;19931;-68
2023/01/25 04:27:03;;;;;;;;;;;3.30;99.90;;;;;;5004234;28;20397;-70
2023/01/25 04:29:28;;;;;;;;;;;3.30;99.90;;;;;;5010892;28;20381;-69
2023/01/25 04:31:54;;;;;;;;;;;3.30;99.90;;;;;;5010299;28;20246;-68
2023/01/25 04:34:20;;;;;;;;;;;3.20;99.90;;;;;;5012345;28;19932;-69
2023/01/25 04:36:45;;;;;;;;;;;3.20;99.90;;;;;;5010736;28;19919;-69
2023/01/25 04:39:11;;;;;;;;;;;3.20;99.90;;;;;;5016009;28;19914;-69
2023/01/25 04:41:37;;;;;;;;;;;3.20;99.90;;;;;;5010933;28;19909;-69
2023/01/25 04:44:02;;;;;;;;;;;3.20;99.90;;;;;;5029452;23;19980;-63
2023/01/25 04:46:28;;;;;;;;;;;3.20;99.90;;;;;;5026767;28;19909;-63
2023/01/25 04:48:53;;;;;;;;;;;3.20;99.90;;;;;;5013209;28;20004;-63
2023/01/25 04:51:19;;;;;;;;;;;3.20;99.90;;;;;;5018479;28;20008;-64
2023/01/25 04:53:45;;;;;;;;;;;3.30;99.90;;;;;;5023103;28;19920;-63
2023/01/25 04:56:10;;;;;;;;;;;3.20;99.90;;;;;;5029172;28;20361;-62
2023/01/25 04:58:36;;;;;;;;;;;3.20;99.90;;;;;;5025775;28;19909;-63
2023/01/25 05:01:02;;;;;;;;;;;3.20;99.90;;;;;;5018575;28;19916;-63
2023/01/25 05:03:28;;;;;;;;;;;3.20;99.90;;;;;;5017109;28;20011;-63
2023/01/25 05:05:53;;;;;;;;;;;3.20;99.90;;;;;;5020843;28;20280;-63
2023/01/25 05:08:19;;;;;;;;;;;3.20;99.90;;;;;;5018469;28;19916;-63
2023/01/25 05:10:45;;;;;;;;;;;3.30;99.90;;;;;;5025525;28;19917;-63
2023/01/25 05:13:10;;;;;;;;;;;3.30;99.90;;;;;;5024872;28;20361;-62
2023/01/25 05:15:36;;;;;;;;;;;3.20;99.90;;;;;;5027038;28;19909;-62
2023/01/25 05:18:02;;;;;;;;;;;3.10;99.90;;;;;;5026523;28;19949;-62
2023/01/25 05:20:27;;;;;;;;;;;3.20;99.90;;;;;;5022034;28;19913;-62
2023/01/25 05:22:53;;;;;;;;;;;3.20;99.90;;;;;;5024339;28;19916;-63
2023/01/25 05:28:03;;;;;;;;;;;3.20;99.90;;;;;;5020161;28;19915;-62
2023/01/25 05:30:29;;;;;;;;;;;3.10;99.90;;;;;;5017932;28;19956;-63
2023/01/25 05:32:54;;;;;;;;;;;3.10;99.90;;;;;;5024133;28;19956;-63
2023/01/25 05:35:20;;;;;;;;;;;3.20;99.90;;;;;;5023019;28;19916;-63
2023/01/25 05:37:45;;;;;;;;;;;3.10;99.90;;;;;;5025473;28;19916;-63
2023/01/25 05:40:11;;;;;;;;;;;3.10;99.90;;;;;;5023579;28;20369;-61
2023/01/25 05:42:37;;;;;;;;;;;3.00;99.90;;;;;;5021206;28;19971;-62
2023/01/25 05:45:03;;;;;;;;;;;3.00;99.90;;;;;;5021697;28;19913;-63
2023/01/25 05:47:28;;;;;;;;;;;3.00;99.90;;;;;;5029380;28;20296;-62
2023/01/25 05:49:54;;;;;;;;;;;3.00;99.90;;;;;;5028112;28;20388;-62
2023/01/25 05:52:19;;;;;;;;;;;3.00;99.90;;;;;;5018566;28;19945;-62
2023/01/25 05:54:46;;;;;;;;;;;3.00;99.90;;;;;;5025191;28;19909;-63
2023/01/25 05:57:13;;;;;;;;;;;3.00;99.90;;;;;;5037798;28;19916;-63
2023/01/25 05:59:38;;;;;;;;;;;3.00;99.90;;;;;;5043432;28;20356;-63
2023/01/25 06:02:11;;;;;;;;;;;3.00;99.90;;;;;;5020615;28;20320;-64
2023/01/25 06:04:36;;;;;;;;;;;3.00;99.90;;;;;;5030349;28;19959;-62
2023/01/25 06:07:02;;;;;;;;;;;3.00;99.90;;;;;;5025212;28;19917;-62
2023/01/25 06:09:28;;;;;;;;;;;3.00;99.90;;;;;;5023641;28;19913;-63
2023/01/25 06:11:53;;;;;;;;;;;3.10;99.90;;;;;;5026389;28;20349;-63
2023/01/25 06:14:19;;;;;;;;;;;3.10;99.90;;;;;;5022619;28;20449;-63
2023/01/25 06:16:45;;;;;;;;;;;3.10;99.90;;;;;;5027007;28;19909;-63
2023/01/25 06:19:12;;;;;;;;;;;3.10;99.90;;;;;;5026539;28;19916;-63
2023/01/25 06:21:37;;;;;;;;;;;3.10;99.90;;;;;;5028609;28;19913;-63
2023/01/25 06:24:03;;;;;;;;;;;3.10;99.90;;;;;;5025419;28;19963;-63
2023/01/25 06:26:29;;;;;;;;;;;3.00;99.90;;;;;;5023092;28;19910;-62
2023/01/25 06:28:58;;;;;;;;;;;3.10;99.90;;;;;;5020831;28;19913;-62
2023/01/25 06:31:23;;;;;;;;;;;3.00;99.90;;;;;;5041584;28;19921;-63
2023/01/25 06:33:50;;;;;;;;;;;3.00;99.90;;;;;;5026697;28;19963;-63
2023/01/25 06:36:17;;;;;;;;;;;3.00;99.90;;;;;;5023709;28;19913;-62
2023/01/25 06:38:43;;;;;;;;;;;3.10;99.90;;;;;;5024991;28;19909;-64
2023/01/25 06:41:10;;;;;;;;;;;3.10;99.90;;;;;;5026160;28;19996;-63
2023/01/25 06:43:35;;;;;;;;;;;3.10;99.90;;;;;;5016378;28;19917;-63
2023/01/25 06:46:02;;;;;;;;;;;3.10;99.90;;;;;;5025204;28;19909;-64
2023/01/25 06:48:29;;;;;;;;;;;3.10;99.90;;;;;;5023311;28;19914;-64
2023/01/25 06:50:58;;;;;;;;;;;3.10;99.90;;;;;;5025982;28;19921;-64
2023/01/25 06:53:25;;;;;;;;;;;3.00;99.90;;;;;;5016566;28;20041;-64
2023/01/25 06:55:57;;;;;;;;;;;3.00;99.90;;;;;;5025061;28;20400;-63
2023/01/25 06:58:25;;;;;;;;;;;2.90;99.90;;;;;;5022874;28;19909;-63
2023/01/25 07:00:51;;;;;;;;;;;2.80;99.90;;;;;;5026619;28;19916;-62
2023/01/25 07:03:17;;;;;;;;;;;2.80;99.90;;;;;;5028406;28;19912;-63
2023/01/25 07:05:42;;;;;;;;;;;2.90;99.90;;;;;;5026701;28;19924;-63
2023/01/25 07:08:08;;;;;;;;;;;2.80;99.90;;;;;;5026375;28;20017;-62
2023/01/25 07:10:34;;;;;;;;;;;2.90;99.90;;;;;;5024785;28;19917;-63
2023/01/25 07:12:59;;;;;;;;;;;3.00;99.90;;;;;;5025464;28;20352;-63
2023/01/25 07:15:25;;;;;;;;;;;2.90;99.90;;;;;;5029494;28;19909;-63
2023/01/25 07:17:51;;;;;;;;;;;2.90;99.90;;;;;;5019647;28;19910;-64
2023/01/25 07:20:16;;;;;;;;;;;2.90;99.90;;;;;;5024114;28;19910;-63
2023/01/25 07:22:42;;;;;;;;;;;2.90;99.90;;;;;;5022283;28;19909;-63
2023/01/25 07:25:07;;;;;;;;;;;2.90;99.90;;;;;;5026217;28;20004;-62
2023/01/25 07:27:34;;;;;;;;;;;2.90;99.90;;;;;;5030185;28;19991;-62
2023/01/25 07:29:59;;;;;;;;;;;2.90;99.90;;;;;;5026233;28;19960;-62
2023/01/25 07:32:25;;;;;;;;;;;2.80;99.90;;;;;;5027119;28;19944;-63
2023/01/25 07:34:51;;;;;;;;;;;2.80;99.90;;;;;;5026813;28;19910;-63
2023/01/25 07:37:16;;;;;;;;;;;2.80;99.90;;;;;;5024768;28;19921;-63
2023/01/25 07:39:48;;;;;;;;;;;2.90;99.90;;;;;;5020540;28;19954;-63
2023/01/25 07:42:14;;;;;;;;;;;2.90;99.90;;;;;;5019109;28;20039;-63
2023/01/25 07:44:40;;;;;;;;;;;2.90;99.90;;;;;;5028687;28;20011;-62
2023/01/25 07:47:05;;;;;;;;;;;2.90;99.90;;;;;;5024753;28;20368;-62
2023/01/25 07:49:34;;;;;;;;;;;2.90;99.90;;;;;;5030326;28;20423;-63
2023/01/25 07:52:03;;;;;;;;;;;2.90;99.90;;;;;;5043697;28;19916;-62
2023/01/25 07:54:29;;;;;;;;;;;2.90;99.90;;;;;;5023574;28;19913;-62
2023/01/25 07:56:54;;;;;;;;;;;2.90;99.90;;;;;;5019853;28;20387;-62
2023/01/25 07:59:20;;;;;;;;;;;2.90;99.90;;;;;;5028342;28;19916;-63
2023/01/25 08:01:46;;;;;;;;;;;2.90;99.90;;;;;;5024994;28;19923;-62
2023/01/25 08:04:15;;;;;;;;;;;2.80;99.90;;;;;;5030630;28;20369;-64
2023/01/25 08:06:41;;;;;;;;;;;2.80;99.90;;;;;;5031823;28;19960;-63
2023/01/25 08:09:18;;;;;;;;;;;2.80;99.90;;;;;;5029738;28;19968;-63
2023/01/25 08:11:48;;;;;;;;;;;2.70;99.90;;;;;;5045778;28;19960;-63
2023/01/25 08:14:14;;;;;;;;;;;2.70;99.90;;;;;;5030704;28;20327;-63
2023/01/25 08:16:40;;;;;;;;;;;2.60;99.90;;;;;;5031129;28;19913;-63
2023/01/25 08:19:06;;;;;;;;;;;2.60;99.90;;;;;;5026504;28;20352;-63
2023/01/25 08:21:32;;;;;;;;;;;2.60;99.90;;;;;;5031649;28;19913;-63
2023/01/25 08:23:59;;;;;;;;;;;2.60;99.90;;;;;;5027380;28;19916;-62
2023/01/25 08:26:25;;;;;;;;;;;2.60;99.90;;;;;;5031203;28;20341;-63
2023/01/25 08:28:52;;;;;;;;;;;2.60;99.90;;;;;;5024873;28;19923;-63
2023/01/25 08:31:22;;;;;;;;;;;2.70;99.90;;;;;;5028341;28;20365;-63
2023/01/25 08:33:48;;;;;;;;;;;2.70;99.90;;;;;;5028665;28;19935;-62
2023/01/25 08:36:15;;;;;;;;;;;2.60;99.90;;;;;;5029256;28;21369;-64
2023/01/25 08:38:41;;;;;;;;;;;2.70;99.90;;;;;;5027948;28;19909;-64
2023/01/25 08:41:07;;;;;;;;;;;2.60;99.90;;;;;;5026229;28;20373;-64
2023/01/25 08:43:33;;;;;;;;;;;2.60;99.90;;;;;;5028068;28;20335;-64
2023/01/25 08:45:58;;;;;;;;;;;2.70;99.90;;;;;;5029806;28;19913;-64
2023/01/25 08:48:24;;;;;;;;;;;2.80;99.90;;;;;;5029614;28;19962;-65
2023/01/25 08:50:49;;;;;;;;;;;2.80;99.90;;;;;;5029683;28;19917;-63
2023/01/25 08:53:15;;;;;;;;;;;2.80;99.90;;;;;;5031127;28;20265;-64
2023/01/25 08:55:41;;;;;;;;;;;2.90;99.90;;;;;;5026928;28;19973;-67
2023/01/25 08:58:14;;;;;;;;;;;2.90;99.90;;;;;;5024010;28;19959;-67
2023/01/25 09:00:41;;;;;;;;;;;2.90;99.90;;;;;;5026434;28;19910;-67
2023/01/25 09:03:07;;;;;;;;;;;2.80;99.90;;;;;;5023485;28;19920;-66
2023/01/25 09:05:34;;;;;;;;;;;2.80;99.90;;;;;;5025834;28;19909;-66
2023/01/25 09:08:00;;;;;;;;;;;2.70;99.90;;;;;;5027599;28;19909;-66
2023/01/25 09:10:26;;;;;;;;;;;2.70;99.90;;;;;;5024545;28;20362;-69
2023/01/25 09:12:52;;;;;;;;;;;2.70;99.90;;;;;;5021189;28;19919;-67
2023/01/25 09:15:18;;;;;;;;;;;2.60;99.90;;;;;;5027943;28;19919;-69
2023/01/25 09:17:44;;;;;;;;;;;2.60;99.90;;;;;;5029928;28;19916;-68
2023/01/25 09:20:10;;;;;;;;;;;2.60;99.90;;;;;;5026169;28;19909;-67
2023/01/25 09:22:39;;;;;;;;;;;2.70;99.90;;;;;;5030160;28;19909;-67
2023/01/25 09:25:05;;;;;;;;;;;2.80;99.90;;;;;;5028842;28;19913;-67
2023/01/25 09:27:31;;;;;;;;;;;2.80;99.90;;;;;;5027915;28;19955;-67
2023/01/25 09:29:57;;;;;;;;;;;2.80;99.90;;;;;;5027877;28;19924;-66
2023/01/25 09:32:23;;;;;;;;;;;2.90;99.90;;;;;;5030978;28;20361;-67
2023/01/25 09:34:49;;;;;;;;;;;2.90;99.90;;;;;;5028571;28;19944;-68
2023/01/25 09:37:14;;;;;;;;;;;3.00;99.90;;;;;;5027196;28;19945;-68
2023/01/25 09:39:40;;;;;;;;;;;3.00;99.90;;;;;;5027575;28;19975;-68
2023/01/25 09:42:24;;;;;;;;;;;3.00;99.90;;;;;;5028217;28;20578;-67
2023/01/25 09:45:07;;;;;;;;;;;3.00;99.90;;;;;;4988534;28;20009;-67
2023/01/25 09:47:52;;;;;;;;;;;3.00;99.90;;;;;;4988326;28;19909;-67
2023/01/25 09:50:21;;;;;;;;;;;3.00;99.90;;;;;;4988640;28;20030;-68
2023/01/25 09:53:06;;;;;;;;;;;3.00;99.90;;;;;;4987777;28;19910;-67
2023/01/25 09:55:32;;;;;;;;;;;3.00;99.90;;;;;;4988976;28;20376;-67
2023/01/25 09:57:59;;;;;;;;;;;3.10;99.90;;;;;;4985075;28;19913;-67
2023/01/25 10:00:49;;;;;;;;;;;3.10;99.90;;;;;;4980172;28;19910;-67
2023/01/25 10:03:21;;;;;;;;;;;3.10;99.90;;;;;;4979549;28;19925;-66
2023/01/25 10:05:48;;;;;;;;;;;3.10;99.90;;;;;;4980301;28;19949;-66
2023/01/25 10:08:18;;;;;;;;;;;3.20;99.90;;;;;;4986858;28;19913;-66
2023/01/25 10:10:48;;;;;;;;;;;3.20;99.90;;;;;;4976816;28;20372;-66
2023/01/25 10:13:16;;;;;;;;;;;3.10;99.90;;;;;;4983804;28;19917;-66
2023/01/25 10:15:49;;;;;;;;;;;3.20;99.90;;;;;;4983810;28;19913;-66
2023/01/25 10:18:14;;;;;;;;;;;3.30;99.90;;;;;;4981692;28;19964;-67
2023/01/25 10:20:51;;;;;;;;;;;3.30;99.90;;;;;;4983092;28;19914;-66
2023/01/25 10:23:32;;;;;;;;;;;3.40;99.90;;;;;;4987517;28;19918;-66
2023/01/25 10:25:59;;;;;;;;;;;3.40;99.90;;;;;;4981837;28;20408;-67
2023/01/25 10:28:27;;;;;;;;;;;3.40;99.90;;;;;;4985836;28;19909;-67
2023/01/25 10:31:05;;;;;;;;;;;3.30;99.90;;;;;;4983867;28;19921;-68
2023/01/25 10:33:34;;;;;;;;;;;3.40;99.90;;;;;;4982256;28;19914;-68
2023/01/25 10:36:04;;;;;;;;;;;3.40;99.90;;;;;;4983695;28;19956;-66
2023/01/25 10:38:41;;;;;;;;;;;3.40;99.90;;;;;;4989216;28;19909;-67
2023/01/25 10:41:12;;;;;;;;;;;3.30;99.90;;;;;;4986741;28;19914;-67
2023/01/25 10:43:38;;;;;;;;;;;3.30;99.90;;;;;;4998302;28;19921;-67
2023/01/25 10:46:14;;;;;;;;;;;3.40;99.90;;;;;;5022949;28;19909;-67
2023/01/25 10:48:40;;;;;;;;;;;3.40;99.90;;;;;;5021189;28;19913;-67
2023/01/25 10:51:05;;;;;;;;;;;3.40;99.90;;;;;;5022106;28;20329;-67
2023/01/25 10:53:36;;;;;;;;;;;3.40;99.90;;;;;;5019912;28;20629;-68
2023/01/25 10:56:07;;;;;;;;;;;3.40;99.90;;;;;;5022825;28;19992;-67
2023/01/25 10:58:38;;;;;;;;;;;3.30;99.90;;;;;;5024109;28;19909;-66
2023/01/25 11:01:05;;;;;;;;;;;3.30;99.90;;;;;;5019293;28;19913;-68
2023/01/25 11:03:43;;;;;;;;;;;3.20;99.90;;;;;;5024430;28;19913;-67
2023/01/25 11:06:09;;;;;;;;;;;3.30;99.90;;;;;;5022029;28;19909;-66
2023/01/25 11:08:37;;;;;;;;;;;3.30;99.90;;;;;;5026987;28;19974;-67
2023/01/25 11:11:25;;;;;;;;;;;3.30;99.90;;;;;;5020265;28;20381;-67
2023/01/25 11:13:53;;;;;;;;;;;3.20;99.90;;;;;;5016001;28;19951;-67
2023/01/25 11:16:25;;;;;;;;;;;3.20;99.90;;;;;;5021874;28;20327;-67
2023/01/25 11:18:52;;;;;;;;;;;3.20;99.90;;;;;;5020999;28;19909;-67
2023/01/25 11:21:22;;;;;;;;;;;3.20;99.90;;;;;;5019741;28;19928;-67
2023/01/25 11:24:03;;;;;;;;;;;3.30;99.90;;;;;;5022254;28;20369;-67
2023/01/25 11:26:29;;;;;;;;;;;3.20;99.90;;;;;;5022547;28;19913;-67
2023/01/25 11:29:18;;;;;;;;;;;3.20;99.90;;;;;;5021932;28;19931;-66
2023/01/25 11:31:47;;;;;;;;;;;3.30;99.90;;;;;;5017732;28;20067;-67
2023/01/25 11:34:14;;;;;;;;;;;3.20;99.90;;;;;;5024807;28;19931;-66
2023/01/25 11:37:07;;;;;;;;;;;3.30;99.90;;;;;;5021709;28;20070;-67
2023/01/25 11:39:40;;;;;;;;;;;3.30;99.90;;;;;;5019694;28;19909;-67
2023/01/25 11:42:06;;;;;;;;;;;3.30;99.90;;;;;;5022267;28;20517;-68
2023/01/25 11:44:47;;;;;;;;;;;3.20;99.90;;;;;;5026942;28;20011;-67
2023/01/25 11:47:24;;;;;;;;;;;3.20;99.90;;;;;;5021789;28;20381;-67
2023/01/25 11:49:56;;;;;;;;;;;3.20;99.90;;;;;;5021324;28;20422;-67
2023/01/25 11:52:40;;;;;;;;;;;3.10;99.90;;;;;;5023120;28;19916;-67
2023/01/25 11:55:24;;;;;;;;;;;3.10;99.90;;;;;;5021851;28;20365;-67
2023/01/25 11:57:49;;;;;;;;;;;3.20;99.90;;;;;;5035022;28;20034;-68
2023/01/25 12:00:27;;;;;;;;;;;3.20;99.90;;;;;;5025217;28;19935;-67
2023/01/25 12:02:56;;;;;;;;;;;3.20;99.90;;;;;;5040719;28;19935;-67
2023/01/25 12:05:31;;;;;;;;;;;3.30;99.90;;;;;;5041192;28;20364;-67
2023/01/25 12:08:10;;;;;;;;;;;3.20;99.90;;;;;;5022852;28;20368;-66
2023/01/25 12:10:47;;;;;;;;;;;3.20;99.90;;;;;;5025402;28;19999;-68
2023/01/25 12:13:25;;;;;;;;;;;3.10;99.90;;;;;;5025395;28;19916;-67
2023/01/25 12:15:56;;;;;;;;;;;3.10;99.90;;;;;;5025200;28;19917;-67
2023/01/25 12:18:37;;;;;;;;;;;3.20;99.90;;;;;;5026479;28;19996;-67
2023/01/25 12:21:24;;;;;;;;;;;3.20;99.90;;;;;;5026907;28;20347;-67
2023/01/25 12:24:01;;;;;;;;;;;3.20;99.90;;;;;;5025399;28;19932;-68
2023/01/25 12:26:28;;;;;;;;;;;3.30;99.90;;;;;;5023022;28;19956;-67
2023/01/25 12:29:03;;;;;;;;;;;3.30;99.90;;;;;;5026523;28;19935;-68
2023/01/25 12:31:42;;;;;;;;;;;3.30;99.90;;;;;;5030825;28;19920;-68
2023/01/25 12:34:15;;;;;;;;;;;3.20;99.90;;;;;;5023830;28;19909;-67
2023/01/25 12:36:44;;;;;;;;;;;3.20;99.90;;;;;;5030674;28;19941;-68
2023/01/25 12:39:23;;;;;;;;;;;3.30;99.90;;;;;;5029019;28;20003;-67
2023/01/25 12:42:27;;;;;;;;;;;3.30;99.90;;;;;;5024545;28;19913;-67
2023/01/25 12:45:05;;;;;;;;;;;3.30;99.90;;;;;;4996992;28;19917;-67
2023/01/25 12:47:31;;;;;;;;;;;3.30;99.90;;;;;;4994076;28;19996;-67
2023/01/25 12:50:03;;;;;;;;;;;3.30;99.90;;;;;;4997358;28;20016;-67
2023/01/25 12:52:33;;;;;;;;;;;3.20;99.90;;;;;;5004371;28;19914;-67
2023/01/25 12:55:00;;;;;;;;;;;3.20;99.90;;;;;;5000908;28;19916;-66
2023/01/25 12:57:31;;;;;;;;;;;3.00;99.90;;;;;;5004459;28;19992;-67
2023/01/25 13:00:03;;;;;;;;;;;3.10;99.90;;;;;;4997521;28;19979;-67
2023/01/25 13:02:28;;;;;;;;;;;3.10;99.90;;;;;;5001339;28;20392;-67
2023/01/25 13:05:03;;;;;;;;;;;3.20;99.90;;;;;;4988202;28;19917;-67
2023/01/25 13:07:39;;;;;;;;;;;3.20;99.90;;;;;;4994965;28;20390;-67
2023/01/25 13:10:11;;;;;;;;;;;3.40;99.90;;;;;;4984740;28;19913;-68
2023/01/25 13:12:50;;;;;;;;;;;3.30;99.90;;;;;;4997083;28;19988;-67
2023/01/25 13:15:34;;;;;;;;;;;3.40;99.90;;;;;;5010580;28;20386;-67
2023/01/25 13:17:59;;;;;;;;;;;3.30;99.90;;;;;;5028454;28;19992;-68
2023/01/25 13:20:40;;;;;;;;;;;3.30;99.90;;;;;;5020380;28;19999;-68
2023/01/25 13:23:24;;;;;;;;;;;3.30;99.90;;;;;;5014899;28;20417;-68
2023/01/25 13:25:50;;;;;;;;;;;3.40;99.90;;;;;;5022652;28;19932;-68
2023/01/25 13:28:35;;;;;;;;;;;3.40;99.90;;;;;;5026902;28;20280;-67
2023/01/25 13:31:01;;;;;;;;;;;3.40;99.90;;;;;;5019696;28;20276;-68
2023/01/25 13:33:36;;;;;;;;;;;3.40;99.90;;;;;;5021972;28;19909;-67
2023/01/25 13:36:22;;;;;;;;;;;3.40;99.90;;;;;;5023510;28;19983;-66
2023/01/25 13:38:47;;;;;;;;;;;3.40;99.90;;;;;;5025685;28;19909;-67
2023/01/25 13:41:15;;;;;;;;;;;3.40;99.90;;;;;;5027487;28;19954;-67
2023/01/25 13:43:42;;;;;;;;;;;3.40;99.90;;;;;;5015459;28;19972;-67
2023/01/25 13:46:11;;;;;;;;;;;3.30;99.90;;;;;;5026845;28;19913;-67
2023/01/25 13:48:47;;;;;;;;;;;3.30;99.90;;;;;;5020253;28;19914;-67
2023/01/25 13:51:14;;;;;;;;;;;3.30;99.90;;;;;;5028423;28;19956;-67
2023/01/25 13:53:44;;;;;;;;;;;3.30;99.90;;;;;;5025862;28;19909;-68
2023/01/25 13:56:26;;;;;;;;;;;3.40;99.90;;;;;;5020609;28;20318;-67
2023/01/25 13:58:52;;;;;;;;;;;3.40;99.90;;;;;;5016298;28;19917;-68
2023/01/25 14:01:19;;;;;;;;;;;3.40;99.90;;;;;;5025285;28;20348;-67
2023/01/25 14:03:48;;;;;;;;;;;3.50;99.90;;;;;;5028228;28;19910;-67
2023/01/25 14:06:21;;;;;;;;;;;3.50;99.90;;;;;;5026584;28;20322;-67
2023/01/25 14:08:50;;;;;;;;;;;3.50;99.90;;;;;;5024778;28;19909;-67
2023/01/25 14:11:17;;;;;;;;;;;3.60;99.90;;;;;;5024400;28;19924;-68
2023/01/25 14:14:03;;;;;;;;;;;3.60;99.90;;;;;;5025830;28;19909;-66
2023/01/25 14:16:29;;;;;;;;;;;3.60;99.90;;;;;;5026435;28;19920;-66
2023/01/25 14:18:56;;;;;;;;;;;3.80;99.90;;;;;;5024744;28;19909;-68
2023/01/25 14:21:22;;;;;;;;;;;3.80;99.90;;;;;;5026221;28;21601;-67
2023/01/25 14:23:48;;;;;;;;;;;3.80;99.90;;;;;;5024906;28;19920;-66
2023/01/25 14:26:21;;;;;;;;;;;3.90;99.90;;;;;;5026732;28;20386;-62
2023/01/25 14:28:53;;;;;;;;;;;3.90;99.90;;;;;;5020637;28;20272;-67
2023/01/25 14:31:26;;;;;;;;;;;3.90;99.90;;;;;;5025923;28;19967;-68
2023/01/25 14:33:57;;;;;;;;;;;4.00;99.90;;;;;;5022535;28;20086;-67
2023/01/25 14:36:27;;;;;;;;;;;4.00;99.90;;;;;;5025361;28;20403;-65
2023/01/25 14:38:53;;;;;;;;;;;4.00;99.90;;;;;;5037842;28;20010;-66
2023/01/25 14:41:19;;;;;;;;;;;4.00;99.90;;;;;;5026286;28;19913;-66